Time;durP1;ratioP1;P1;durP2;ratioP2;P2;SDS_P1;SDS_P2;PMS_P1;PMS_P2;Temp;Humidity;BMP_temperature;BMP_pressure;BME280_temperature;BME280_humidity;BME280_pressure;Samples;Min_cycle;Max_cycle;Signal;HPM_P1;HPM_P2
2022/10/12 00:00:06;;;;;;;12.30;11.30;;;10.40;99.90;;;;;;4120656;28;20056;-80
2022/10/12 00:02:27;;;;;;;10.27;9.88;;;10.40;99.90;;;;;;4120790;28;20529;-81
2022/10/12 00:04:47;;;;;;;10.68;9.82;;;10.40;99.90;;;;;;4120385;28;20085;-81
2022/10/12 00:07:08;;;;;;;10.27;9.77;;;10.40;99.90;;;;;;4120122;28;20109;-81
2022/10/12 00:09:29;;;;;;;11.02;10.40;;;10.30;99.90;;;;;;4120314;28;20092;-80
2022/10/12 00:11:49;;;;;;;11.07;10.52;;;10.40;99.90;;;;;;4119244;28;20065;-81
2022/10/12 00:14:10;;;;;;;11.90;10.65;;;10.40;99.90;;;;;;4121033;28;20062;-81
2022/10/12 00:16:31;;;;;;;10.13;9.65;;;10.40;99.90;;;;;;4120618;28;20494;-80
2022/10/12 00:18:53;;;;;;;10.05;9.55;;;10.40;99.90;;;;;;4119915;28;20057;-81
2022/10/12 00:21:16;;;;;;;9.82;9.63;;;10.40;99.90;;;;;;4120439;28;20502;-80
2022/10/12 00:23:37;;;;;;;9.98;9.27;;;10.40;99.90;;;;;;4119745;28;20600;-81
2022/10/12 00:26:07;;;;;;;10.50;9.85;;;10.40;99.90;;;;;;4133299;28;20102;-81
2022/10/12 00:28:29;;;;;;;9.88;9.38;;;10.40;99.90;;;;;;4121055;28;20101;-81
2022/10/12 00:30:50;;;;;;;10.13;9.55;;;10.30;99.90;;;;;;4120146;28;21017;-81
2022/10/12 00:33:10;;;;;;;9.10;8.40;;;10.40;99.90;;;;;;4119782;28;20076;-81
2022/10/12 00:35:31;;;;;;;9.63;9.27;;;10.40;99.90;;;;;;4131946;28;20084;-81
2022/10/12 00:37:56;;;;;;;10.52;9.90;;;10.30;99.90;;;;;;4120169;28;20133;-81
2022/10/12 00:40:16;;;;;;;11.27;10.55;;;10.20;99.90;;;;;;4119966;28;20135;-81
2022/10/12 00:42:37;;;;;;;10.13;9.68;;;10.20;99.90;;;;;;4119787;28;20498;-81
2022/10/12 00:44:57;;;;;;;10.25;9.63;;;10.20;99.90;;;;;;4118873;28;20050;-80
2022/10/12 00:47:32;;;;;;;9.63;9.30;;;10.20;99.90;;;;;;4119542;28;20073;-80
2022/10/12 00:50:28;;;;;;;9.88;9.38;;;10.20;99.90;;;;;;4119895;28;20560;-81
2022/10/12 00:52:51;;;;;;;9.95;9.25;;;10.10;99.90;;;;;;4068512;29;20501;-80
2022/10/12 00:55:13;;;;;;;;;;;10.10;99.90;;;;;;4076693;29;20131;-81
2022/10/12 00:57:35;;;;;;;10.68;10.05;;;10.10;99.90;;;;;;4060319;29;20022;-81
2022/10/12 01:00:03;;;;;;;12.98;11.85;;;10.10;99.90;;;;;;4073746;29;20058;-81
2022/10/12 01:02:26;;;;;;;10.90;10.27;;;10.10;99.90;;;;;;4072843;29;20611;-81
2022/10/12 01:04:47;;;;;;;12.02;11.32;;;10.00;99.90;;;;;;4072692;29;20409;-81
2022/10/12 01:07:07;;;;;;;11.30;10.50;;;10.00;99.90;;;;;;4073030;29;20129;-81
2022/10/12 01:09:29;;;;;;;11.68;10.63;;;9.80;99.90;;;;;;4073232;29;20082;-81
2022/10/12 01:11:50;;;;;;;10.48;9.65;;;9.80;99.90;;;;;;4073354;29;20539;-81
2022/10/12 01:14:10;;;;;;;11.75;10.95;;;9.80;99.90;;;;;;4072453;29;20106;-83
2022/10/12 01:16:54;;;;;;;12.45;11.38;;;9.80;99.90;;;;;;4072388;29;20063;-83
2022/10/12 01:19:29;;;;;;;12.25;11.55;;;9.80;99.90;;;;;;4056425;29;20050;-83
2022/10/12 01:22:15;;;;;;;10.32;9.98;;;9.90;99.90;;;;;;4059099;29;20064;-82
2022/10/12 01:24:59;;;;;;;13.18;12.15;;;9.80;99.90;;;;;;4072766;29;20159;-83
2022/10/12 01:27:47;;;;;;;11.07;10.48;;;9.80;99.90;;;;;;4059720;29;20136;-83
2022/10/12 01:30:24;;;;;;;10.88;10.38;;;9.80;99.90;;;;;;4122914;28;20082;-82
2022/10/12 01:32:56;;;;;;;12.55;12.05;;;9.80;99.90;;;;;;4122849;28;20438;-83
2022/10/12 01:35:24;;;;;;;11.27;10.88;;;9.80;99.90;;;;;;4134711;28;20100;-82
2022/10/12 01:37:56;;;;;;;12.52;11.57;;;9.80;99.90;;;;;;4122873;28;20105;-83
2022/10/12 01:40:28;;;;;;;12.32;11.52;;;9.80;99.90;;;;;;4135528;28;20131;-82
2022/10/12 01:42:49;;;;;;;12.43;11.60;;;9.80;99.90;;;;;;4122598;28;20049;-82
2022/10/12 01:45:16;;;;;;;13.00;12.30;;;9.70;99.90;;;;;;4122276;28;20049;-82
2022/10/12 01:47:39;;;;;;;12.13;11.43;;;9.50;99.90;;;;;;4122241;28;20061;-82
2022/10/12 01:50:03;;;;;;;14.15;13.10;;;9.40;99.90;;;;;;4121335;28;20081;-83
2022/10/12 01:52:30;;;;;;;11.88;11.27;;;9.50;99.90;;;;;;4122163;28;20140;-82
2022/10/12 01:55:14;;;;;;;12.07;11.27;;;9.40;99.90;;;;;;4121513;28;20090;-83
2022/10/12 01:57:57;;;;;;;12.00;11.18;;;9.40;99.90;;;;;;4135086;28;20053;-83
2022/10/12 02:00:18;;;;;;;11.32;10.73;;;9.30;99.90;;;;;;4121950;28;20066;-83
2022/10/12 02:02:49;;;;;;;11.90;11.20;;;9.30;99.90;;;;;;4134697;28;20109;-82
2022/10/12 02:05:22;;;;;;;13.45;12.40;;;9.30;99.90;;;;;;4122777;28;20053;-82
2022/10/12 02:08:23;;;;;;;11.68;11.13;;;9.40;99.90;;;;;;4120692;28;20198;-82
2022/10/12 02:10:57;;;;;;;10.98;10.55;;;9.40;99.90;;;;;;4122957;28;20065;-82
2022/10/12 02:13:20;;;;;;;10.60;10.25;;;9.40;99.90;;;;;;4121143;28;20458;-82
2022/10/12 02:15:43;;;;;;;12.07;11.43;;;9.40;99.90;;;;;;4122811;28;20109;-81
2022/10/12 02:18:05;;;;;;;11.65;10.98;;;9.40;99.90;;;;;;4121490;28;20144;-82
2022/10/12 02:20:26;;;;;;;11.80;10.93;;;9.40;99.90;;;;;;4122485;28;20057;-82
2022/10/12 02:22:49;;;;;;;13.10;12.02;;;9.40;99.90;;;;;;4122745;28;20057;-82
2022/10/12 02:25:12;;;;;;;12.35;11.50;;;9.40;99.90;;;;;;4122396;28;20171;-82
2022/10/12 02:27:37;;;;;;;12.50;11.85;;;9.40;99.90;;;;;;4120481;28;20565;-83
2022/10/12 02:30:00;;;;;;;13.05;12.13;;;9.40;99.90;;;;;;4120439;28;20104;-82
2022/10/12 02:32:38;;;;;;;11.82;11.13;;;9.20;99.90;;;;;;4121004;28;20057;-82
2022/10/12 02:35:36;;;;;;;11.20;10.63;;;9.20;99.90;;;;;;4121161;28;20533;-82
2022/10/12 02:38:05;;;;;;;10.63;10.13;;;9.40;99.90;;;;;;4121558;28;20410;-82
2022/10/12 02:40:51;;;;;;;10.60;10.00;;;9.40;99.90;;;;;;4135647;28;20056;-82
2022/10/12 02:43:18;;;;;;;10.35;10.02;;;9.40;99.90;;;;;;4120332;28;20049;-83
2022/10/12 02:45:43;;;;;;;12.25;11.63;;;9.40;99.90;;;;;;4120739;28;20078;-82
2022/10/12 02:48:06;;;;;;;12.82;12.25;;;9.30;99.90;;;;;;4134255;28;20053;-82
2022/10/12 02:50:28;;;;;;;26.23;11.60;;;9.30;99.90;;;;;;4120988;28;20057;-82
2022/10/12 02:52:49;;;;;;;11.50;10.73;;;9.30;99.90;;;;;;4120665;28;20061;-82
2022/10/12 02:55:10;;;;;;;11.23;10.63;;;9.30;99.90;;;;;;4120914;28;20056;-82
2022/10/12 02:57:30;;;;;;;11.40;10.93;;;9.30;99.90;;;;;;4122264;28;20517;-82
2022/10/12 02:59:51;;;;;;;12.07;11.20;;;9.30;99.90;;;;;;4120198;28;20430;-82
2022/10/12 03:02:11;;;;;;;11.95;11.45;;;9.40;99.90;;;;;;4121960;28;20057;-82
2022/10/12 03:04:32;;;;;;;10.73;10.38;;;9.40;99.90;;;;;;4120135;28;20125;-82
2022/10/12 03:06:53;;;;;;;11.40;10.70;;;9.30;99.90;;;;;;4121078;28;20537;-82
2022/10/12 03:09:13;;;;;;;10.88;10.45;;;9.30;99.90;;;;;;4120391;28;20057;-82
2022/10/12 03:11:35;;;;;;;13.23;11.75;;;9.20;99.90;;;;;;4120785;28;20058;-82
2022/10/12 03:13:56;;;;;;;10.75;10.20;;;9.10;99.90;;;;;;4120798;28;20054;-82
2022/10/12 03:16:17;;;;;;;14.35;13.18;;;9.10;99.90;;;;;;4121762;28;20117;-82
2022/10/12 03:18:38;;;;;;;22.17;13.60;;;9.00;99.90;;;;;;4121714;28;20062;-82
2022/10/12 03:20:59;;;;;;;10.95;10.40;;;8.90;99.90;;;;;;4120310;28;20054;-82
2022/10/12 03:23:20;;;;;;;9.05;8.70;;;8.80;99.90;;;;;;4120395;28;20165;-82
2022/10/12 03:25:41;;;;;;;10.88;10.38;;;9.00;99.90;;;;;;4120095;28;20438;-82
2022/10/12 03:28:01;;;;;;;8.95;8.65;;;8.90;99.90;;;;;;4133357;28;20405;-82
2022/10/12 03:30:22;;;;;;;9.68;9.25;;;9.00;99.90;;;;;;4119593;28;20165;-82
2022/10/12 03:32:43;;;;;;;11.75;11.05;;;9.00;99.90;;;;;;4121132;28;20138;-82
2022/10/12 03:35:04;;;;;;;10.90;10.27;;;9.00;99.90;;;;;;4121281;28;20525;-82
2022/10/12 03:37:25;;;;;;;9.98;9.50;;;9.10;99.90;;;;;;4121278;28;20057;-82
2022/10/12 03:39:48;;;;;;;10.40;9.82;;;9.10;99.90;;;;;;4119700;28;20095;-82
2022/10/12 03:42:09;;;;;;;9.63;8.90;;;9.10;99.90;;;;;;4119096;28;20567;-82
2022/10/12 03:44:29;;;;;;;9.70;9.20;;;9.20;99.90;;;;;;4119940;28;20068;-82
2022/10/12 03:46:50;;;;;;;9.15;8.65;;;9.20;99.90;;;;;;4119112;28;20054;-82
2022/10/12 03:49:11;;;;;;;9.15;8.60;;;9.20;99.90;;;;;;4121934;28;20053;-82
2022/10/12 03:51:31;;;;;;;10.60;9.75;;;9.20;99.90;;;;;;4120930;28;20057;-82
2022/10/12 03:53:52;;;;;;;11.85;11.10;;;9.00;99.90;;;;;;4121167;28;20045;-82
2022/10/12 03:56:12;;;;;;;11.60;10.95;;;8.90;99.90;;;;;;4121040;28;20511;-82
2022/10/12 03:58:34;;;;;;;43.63;12.30;;;8.80;99.90;;;;;;4120551;28;20177;-82
2022/10/12 04:00:55;;;;;;;13.23;12.15;;;8.80;99.90;;;;;;4120722;28;20102;-82
2022/10/12 04:03:16;;;;;;;13.20;12.13;;;8.60;99.90;;;;;;4120352;28;20058;-82
2022/10/12 04:05:36;;;;;;;12.98;12.00;;;8.60;99.90;;;;;;4119927;28;20077;-82
2022/10/12 04:07:58;;;;;;;17.92;11.20;;;8.60;99.90;;;;;;4121799;28;20061;-82
2022/10/12 04:10:18;;;;;;;11.57;11.00;;;8.60;99.90;;;;;;4119889;28;20127;-82
2022/10/12 04:12:39;;;;;;;12.65;12.00;;;8.60;99.90;;;;;;4119399;28;20510;-82
2022/10/12 04:15:00;;;;;;;13.23;12.10;;;8.50;99.90;;;;;;4133990;28;20195;-82
2022/10/12 04:17:20;;;;;;;11.45;10.80;;;8.60;99.90;;;;;;4119359;28;20605;-82
2022/10/12 04:19:41;;;;;;;11.85;10.30;;;8.50;99.90;;;;;;4132656;28;20129;-82
2022/10/12 04:22:02;;;;;;;11.57;11.05;;;8.50;99.90;;;;;;4133331;28;20101;-82
2022/10/12 04:24:23;;;;;;;11.18;10.77;;;8.60;99.90;;;;;;4132970;28;20157;-82
2022/10/12 04:26:44;;;;;;;12.20;11.30;;;8.60;99.90;;;;;;4119614;28;20589;-82
2022/10/12 04:29:04;;;;;;;10.73;10.30;;;8.50;99.90;;;;;;4119512;28;20211;-82
2022/10/12 04:31:25;;;;;;;12.38;11.68;;;8.40;99.90;;;;;;4122428;28;20057;-81
2022/10/12 04:33:46;;;;;;;11.73;11.00;;;8.50;99.90;;;;;;4122589;28;20903;-81
2022/10/12 04:36:07;;;;;;;12.70;11.52;;;8.50;99.90;;;;;;4123254;28;20136;-81
2022/10/12 04:38:27;;;;;;;11.23;10.63;;;8.70;99.90;;;;;;4122702;28;20101;-81
2022/10/12 04:40:48;;;;;;;11.52;10.63;;;8.80;99.90;;;;;;4121095;28;20416;-81
2022/10/12 04:43:09;;;;;;;10.52;10.15;;;8.80;99.90;;;;;;4122395;28;20105;-81
2022/10/12 04:45:30;;;;;;;10.60;10.30;;;8.70;99.90;;;;;;4122632;28;20151;-82
2022/10/12 04:47:50;;;;;;;11.82;11.05;;;8.70;99.90;;;;;;4122149;28;20157;-81
2022/10/12 04:50:11;;;;;;;14.02;12.90;;;8.70;99.90;;;;;;4135342;28;20088;-81
2022/10/12 04:52:32;;;;;;;11.30;10.43;;;8.60;99.90;;;;;;4123282;28;20076;-81
2022/10/12 04:54:52;;;;;;;11.25;10.65;;;8.60;99.90;;;;;;4122662;28;20050;-81
2022/10/12 04:57:13;;;;;;;12.00;10.98;;;8.70;99.90;;;;;;4121433;28;20061;-81
2022/10/12 04:59:34;;;;;;;11.18;10.48;;;8.60;99.90;;;;;;4121876;28;20479;-82
2022/10/12 05:01:54;;;;;;;10.35;9.70;;;8.70;99.90;;;;;;4124313;28;20049;-81
2022/10/12 05:04:15;;;;;;;9.93;9.43;;;8.70;99.90;;;;;;4122972;28;20069;-81
2022/10/12 05:06:36;;;;;;;8.80;8.50;;;8.60;99.90;;;;;;4121302;28;20133;-81
2022/10/12 05:08:56;;;;;;;11.05;10.32;;;8.70;99.90;;;;;;4123289;28;20453;-81
2022/10/12 05:11:17;;;;;;;8.45;8.25;;;8.70;99.90;;;;;;4120645;28;20252;-81
2022/10/12 05:13:38;;;;;;;9.50;9.10;;;8.70;99.90;;;;;;4135110;28;20108;-81
2022/10/12 05:15:58;;;;;;;9.40;9.00;;;8.80;99.90;;;;;;4122417;28;20113;-81
2022/10/12 05:18:19;;;;;;;10.60;10.10;;;8.80;99.90;;;;;;4123314;28;20402;-81
2022/10/12 05:20:39;;;;;;;11.23;10.27;;;8.70;99.90;;;;;;4121972;28;20056;-81
2022/10/12 05:23:01;;;;;;;9.32;8.93;;;8.60;99.90;;;;;;4123362;28;20053;-86
2022/10/12 05:25:45;;;;;;;8.88;8.60;;;8.70;99.90;;;;;;4138884;28;20052;-86
2022/10/12 05:28:08;;;;;;;8.00;7.70;;;8.70;99.90;;;;;;4073923;29;20184;-86
2022/10/12 05:31:00;;;;;;;;;;;8.70;99.90;;;;;;4072109;29;20154;-86
2022/10/12 05:33:21;;;;;;;9.18;8.88;;;8.80;99.90;;;;;;4043754;29;19934;-86
2022/10/12 05:35:43;;;;;;;10.60;9.95;;;8.70;99.90;;;;;;4058624;29;20520;-85
2022/10/12 05:38:10;;;;;;;11.20;10.55;;;8.50;99.90;;;;;;4059850;29;20109;-87
2022/10/12 05:40:31;;;;;;;11.52;10.73;;;8.30;99.90;;;;;;4055551;29;21074;-86
2022/10/12 05:42:54;;;;;;;12.38;11.88;;;8.30;99.90;;;;;;4062109;29;20251;-87
2022/10/12 05:45:15;;;;;;;11.43;10.75;;;8.20;99.90;;;;;;4059115;29;20548;-87
2022/10/12 05:48:04;;;;;;;13.55;12.65;;;8.30;99.90;;;;;;4059988;29;20103;-86
2022/10/12 05:50:25;;;;;;;11.52;11.10;;;8.30;99.90;;;;;;4020260;29;20136;-86
2022/10/12 05:52:46;;;;;;;12.88;12.23;;;8.30;99.90;;;;;;4016727;29;20056;-87
2022/10/12 05:55:07;;;;;;;12.40;11.32;;;8.20;99.90;;;;;;4015747;29;20068;-88
2022/10/12 05:57:29;;;;;;;12.95;11.77;;;8.20;99.90;;;;;;4012236;29;21045;-87
2022/10/12 05:59:50;;;;;;;12.07;11.18;;;8.20;99.90;;;;;;4014836;29;20567;-86
2022/10/12 06:02:16;;;;;;;12.98;11.82;;;8.20;99.90;;;;;;4010037;29;20484;-84
2022/10/12 06:04:38;;;;;;;19.70;11.85;;;8.20;99.90;;;;;;4024222;29;20137;-86
2022/10/12 06:06:59;;;;;;;11.63;10.90;;;8.10;99.90;;;;;;4071671;29;20433;-86
2022/10/12 06:09:19;;;;;;;16.00;14.30;;;8.20;99.90;;;;;;4076836;29;20131;-86
2022/10/12 06:11:40;;;;;;;17.92;16.30;;;8.20;99.90;;;;;;4089427;29;20194;-85
2022/10/12 06:14:01;;;;;;;17.95;14.38;;;8.20;99.90;;;;;;4076495;29;20599;-86
2022/10/12 06:16:22;;;;;;;13.65;12.90;;;8.30;99.90;;;;;;4090718;28;20067;-86
2022/10/12 06:18:42;;;;;;;12.00;11.48;;;8.30;99.90;;;;;;4093032;29;20098;-86
2022/10/12 06:21:03;;;;;;;12.98;12.07;;;8.40;99.90;;;;;;4089073;28;20111;-86
2022/10/12 06:23:44;;;;;;;11.20;10.50;;;8.50;99.90;;;;;;4087838;29;20153;-86
2022/10/12 06:26:04;;;;;;;10.65;10.15;;;8.60;99.90;;;;;;4087099;29;20103;-86
2022/10/12 06:28:29;;;;;;;10.02;9.63;;;8.60;99.90;;;;;;4121528;28;20062;-86
2022/10/12 06:30:55;;;;;;;9.80;9.32;;;8.70;99.90;;;;;;4122846;28;20061;-86
2022/10/12 06:33:17;;;;;;;9.68;9.38;;;8.80;99.90;;;;;;4121358;28;20089;-86
2022/10/12 06:35:38;;;;;;;10.05;9.75;;;8.90;99.90;;;;;;4120855;28;20537;-86
2022/10/12 06:38:00;;;;;;;9.73;9.43;;;9.00;99.90;;;;;;4123515;28;20405;-86
2022/10/12 06:40:21;;;;;;;11.23;10.10;;;9.10;99.90;;;;;;4134081;28;20052;-86
2022/10/12 06:42:41;;;;;;;10.30;9.15;;;9.20;99.90;;;;;;4134790;28;20544;-86
2022/10/12 06:45:03;;;;;;;9.50;9.00;;;9.20;99.90;;;;;;4120604;28;20085;-86
2022/10/12 06:47:23;;;;;;;9.65;9.25;;;9.30;99.90;;;;;;4120931;28;20581;-86
2022/10/12 06:49:45;;;;;;;11.30;10.48;;;9.30;99.90;;;;;;4133771;28;20564;-85
2022/10/12 06:52:06;;;;;;;12.10;11.18;;;9.30;99.90;;;;;;4119773;28;20086;-86
2022/10/12 06:54:28;;;;;;;9.27;8.98;;;9.40;99.90;;;;;;4138136;28;20066;-87
2022/10/12 06:56:49;;;;;;;10.05;9.50;;;9.30;99.90;;;;;;4121594;28;20084;-87
2022/10/12 06:59:18;;;;;;;8.77;8.10;;;9.40;99.90;;;;;;4123294;28;20057;-87
2022/10/12 07:01:38;;;;;;;7.70;7.50;;;9.50;99.90;;;;;;4135790;28;20052;-86
2022/10/12 07:03:59;;;;;;;9.15;8.43;;;9.60;99.90;;;;;;4124226;28;20132;-87
2022/10/12 07:06:21;;;;;;;8.68;8.30;;;9.60;99.90;;;;;;4122803;28;20465;-87
2022/10/12 07:08:42;;;;;;;9.30;8.55;;;9.70;99.90;;;;;;4135291;28;20069;-86
2022/10/12 07:11:07;;;;;;;9.30;8.82;;;9.90;99.90;;;;;;4122994;28;20045;-86
2022/10/12 07:13:31;;;;;;;10.48;9.32;;;10.00;99.90;;;;;;4121661;28;20053;-87
2022/10/12 07:15:51;;;;;;;9.50;8.80;;;10.10;99.90;;;;;;4130074;28;20121;-87
2022/10/12 07:18:13;;;;;;;8.35;7.95;;;10.20;99.90;;;;;;4123146;28;20057;-87
2022/10/12 07:20:34;;;;;;;7.45;7.25;;;10.30;99.90;;;;;;4123921;28;20049;-87
2022/10/12 07:22:54;;;;;;;8.25;7.95;;;10.50;99.90;;;;;;4119547;28;20110;-87
2022/10/12 07:25:17;;;;;;;7.75;7.35;;;10.60;99.90;;;;;;4135725;28;20073;-85
2022/10/12 07:27:37;;;;;;;8.07;7.60;;;10.60;99.90;;;;;;4120791;28;20122;-84
2022/10/12 07:30:01;;;;;;;6.30;6.07;;;10.80;99.90;;;;;;4133236;28;20521;-86
2022/10/12 07:32:22;;;;;;;;;;;10.90;99.90;;;;;;4121184;28;20486;-86
2022/10/12 07:34:44;;;;;;;5.75;5.53;;;11.00;99.90;;;;;;4123647;28;20400;-86
2022/10/12 07:37:05;;;;;;;6.55;6.05;;;11.10;99.90;;;;;;4117232;28;20438;-86
2022/10/12 07:39:26;;;;;;;7.53;7.05;;;11.20;99.90;;;;;;4120438;28;20053;-85
2022/10/12 07:41:48;;;;;;;6.80;6.18;;;11.30;99.90;;;;;;4118529;28;20129;-85
2022/10/12 07:44:10;;;;;;;8.50;7.70;;;11.40;99.90;;;;;;4122744;28;20085;-85
2022/10/12 07:46:31;;;;;;;8.18;7.88;;;11.50;99.90;;;;;;4122520;28;20634;-86
2022/10/12 07:48:51;;;;;;;7.32;7.13;;;11.50;99.90;;;;;;4120717;28;20097;-86
2022/10/12 07:51:12;;;;;;;7.88;7.03;;;11.60;99.90;;;;;;4120728;28;20053;-86
2022/10/12 07:53:34;;;;;;;7.47;7.18;;;11.70;99.90;;;;;;4120699;28;20069;-86
2022/10/12 07:56:06;;;;;;;9.00;8.50;;;12.00;99.90;;;;;;4121742;28;20133;-86
2022/10/12 07:58:27;;;;;;;7.07;6.78;;;12.10;99.90;;;;;;4121173;28;20548;-86
2022/10/12 08:01:11;;;;;;;7.35;7.05;;;12.20;99.90;;;;;;4132797;28;20118;-86
2022/10/12 08:03:32;;;;;;;8.13;7.70;;;12.20;99.90;;;;;;4070187;29;20080;-86
2022/10/12 08:05:53;;;;;;;7.13;6.70;;;12.30;99.90;;;;;;4076525;29;20106;-86
2022/10/12 08:08:14;;;;;;;8.10;7.80;;;12.40;99.90;;;;;;4076589;29;20094;-86
2022/10/12 08:10:35;;;;;;;6.75;6.22;;;12.30;99.90;;;;;;4074103;29;20063;-86
2022/10/12 08:12:55;;;;;;;8.07;7.50;;;12.40;99.90;;;;;;4063614;29;20048;-87
2022/10/12 08:15:17;;;;;;;8.00;7.70;;;12.50;99.90;;;;;;4064236;29;20143;-86
2022/10/12 08:17:39;;;;;;;19.35;6.90;;;12.70;99.90;;;;;;4076234;29;20144;-88
2022/10/12 08:20:01;;;;;;;6.35;5.97;;;12.80;99.90;;;;;;4075113;29;20063;-87
2022/10/12 08:22:22;;;;;;;6.97;6.68;;;12.90;99.90;;;;;;4077041;29;20051;-86
2022/10/12 08:24:42;;;;;;;7.38;6.85;;;13.00;99.90;;;;;;4062468;29;20481;-87
2022/10/12 08:27:04;;;;;;;6.25;5.95;;;13.00;99.90;;;;;;4075132;29;20058;-85
2022/10/12 08:29:27;;;;;;;6.22;6.03;;;13.00;99.90;;;;;;4075072;29;20538;-87
2022/10/12 08:31:50;;;;;;;6.47;6.38;;;13.10;99.90;;;;;;4074662;29;20230;-87
2022/10/12 08:34:10;;;;;;;6.90;6.22;;;13.30;99.90;;;;;;4073522;29;20055;-86
2022/10/12 08:36:31;;;;;;;7.60;7.07;;;13.40;99.90;;;;;;4075811;29;20079;-87
2022/10/12 08:38:53;;;;;;;8.85;7.03;;;13.50;99.90;;;;;;4067994;29;20103;-86
2022/10/12 08:41:52;;;;;;;7.27;6.67;;;13.50;99.90;;;;;;4118202;28;20061;-87
2022/10/12 08:44:51;;;;;;;8.25;7.65;;;13.60;99.90;;;;;;4134462;28;20104;-87
2022/10/12 08:47:40;;;;;;;7.85;7.45;;;13.60;99.90;;;;;;4122949;28;20058;-86
2022/10/12 08:50:07;;;;;;;7.57;7.00;;;13.80;99.90;;;;;;4123749;28;20166;-86
2022/10/12 08:52:33;;;;;;;7.82;7.30;;;13.80;99.90;;;;;;4120390;28;20069;-86
2022/10/12 08:55:04;;;;;;;7.38;7.00;;;14.00;99.90;;;;;;4125398;28;20101;-86
2022/10/12 08:57:24;;;;;;;8.80;8.02;;;14.20;99.90;;;;;;4121917;28;20521;-86
2022/10/12 09:00:14;;;;;;;6.60;6.13;;;14.30;99.90;;;;;;4122948;28;20117;-86
2022/10/12 09:02:59;;;;;;;6.65;6.30;;;14.50;99.90;;;;;;4074913;29;20047;-87
2022/10/12 09:05:49;;;;;;;6.07;5.80;;;14.50;99.90;;;;;;4072440;29;20128;-85
2022/10/12 09:08:55;;;;;;;6.82;6.25;;;14.80;99.90;;;;;;4073855;29;20103;-85
2022/10/12 09:11:39;;;;;;;6.93;6.50;;;15.00;99.90;;;;;;4050066;29;20052;-86
2022/10/12 09:14:07;;;;;;;9.05;5.68;;;15.20;99.90;;;;;;4045391;29;20059;-88
2022/10/12 09:16:33;;;;;;;6.32;5.93;;;15.40;99.90;;;;;;4055479;29;20180;-88
2022/10/12 09:18:59;;;;;;;6.30;5.72;;;15.60;99.90;;;;;;4058346;29;20059;-88
2022/10/12 09:21:24;;;;;;;5.95;5.47;;;15.70;99.90;;;;;;4057011;29;20059;-88
2022/10/12 09:23:46;;;;;;;5.88;5.60;;;15.90;99.90;;;;;;4058560;29;20067;-87
2022/10/12 09:26:16;;;;;;;6.20;5.70;;;16.10;99.90;;;;;;4043831;29;20051;-88
2022/10/12 09:28:42;;;;;;;4.82;4.47;;;16.20;99.90;;;;;;4056163;29;20420;-89
2022/10/12 09:31:10;;;;;;;5.15;4.82;;;16.30;99.90;;;;;;4044033;29;20060;-88
2022/10/12 09:33:56;;;;;;;5.88;5.68;;;16.50;99.90;;;;;;4052635;29;20059;-88
2022/10/12 09:36:20;;;;;;;9.13;4.32;;;16.70;99.90;;;;;;4056505;29;20079;-88
2022/10/12 09:38:41;;;;;;;4.00;3.80;;;16.80;99.90;;;;;;4057997;29;20055;-89
2022/10/12 09:41:03;;;;;;;5.05;4.80;;;17.00;99.90;;;;;;4066679;29;20055;-88
2022/10/12 09:43:24;;;;;;;7.82;5.30;;;17.20;99.90;;;;;;4074804;29;20151;-88
2022/10/12 09:45:48;;;;;;;4.05;3.85;;;17.40;99.90;;;;;;4112781;28;20621;-88
2022/10/12 09:48:23;;;;;;;5.57;4.30;;;17.70;99.90;;;;;;4122407;28;20138;-86
2022/10/12 09:50:57;;;;;;;6.45;4.43;;;18.00;99.90;;;;;;4120798;28;20066;-89
2022/10/12 09:53:29;;;;;;;6.05;3.40;;;18.20;99.90;;;;;;4121963;28;20101;-88
2022/10/12 10:03:39;;;;;;;3.85;3.67;;;18.70;99.90;;;;;;4177639;27;20425;-86
2022/10/12 10:06:05;;;;;;;7.20;4.43;;;18.90;99.90;;;;;;4163988;28;20059;-88
2022/10/12 10:08:49;;;;;;;4.15;3.78;;;19.10;99.90;;;;;;4181725;28;20486;-88
2022/10/12 10:11:21;;;;;;;4.43;4.07;;;19.20;99.90;;;;;;4199294;28;20059;-87
2022/10/12 10:13:51;;;;;;;3.50;2.92;;;19.40;99.90;;;;;;4195210;28;20044;-88
2022/10/12 10:16:13;;;;;;;3.00;2.72;;;19.80;99.90;;;;;;4198955;28;20059;-89
2022/10/12 10:18:47;;;;;;;5.05;4.85;;;19.80;99.90;;;;;;4195502;28;20566;-89
2022/10/12 10:21:12;;;;;;;4.80;4.05;;;20.00;99.90;;;;;;4192017;28;20059;-88
2022/10/12 10:23:42;;;;;;;3.03;2.78;;;20.40;99.90;;;;;;4174875;28;20461;-89
2022/10/12 10:26:04;;;;;;;3.92;2.35;;;20.60;99.90;;;;;;4197704;28;20102;-87
2022/10/12 10:28:29;;;;;;;2.63;2.53;;;20.80;99.90;;;;;;4168621;28;20056;-89
2022/10/12 10:31:05;;;;;;;2.20;2.10;;;20.90;99.90;;;;;;4180893;28;20055;-90
2022/10/12 10:33:26;;;;;;;2.28;2.10;;;20.90;99.90;;;;;;4178790;28;20539;-88
2022/10/12 10:36:17;;;;;;;2.47;2.33;;;21.10;99.90;;;;;;4177133;28;20063;-89
2022/10/12 10:39:04;;;;;;;2.65;2.45;;;21.30;99.90;;;;;;4178847;28;20079;-90
2022/10/12 10:41:34;;;;;;;2.10;1.85;;;21.10;99.90;;;;;;4180634;28;20123;-90
2022/10/12 10:43:55;;;;;;;2.58;2.38;;;21.50;99.90;;;;;;4182236;28;20128;-90
2022/10/12 10:46:23;;;;;;;4.18;1.50;;;21.80;99.90;;;;;;4184707;28;20047;-90
2022/10/12 10:49:00;;;;;;;2.95;2.80;;;22.00;99.90;;;;;;4167017;28;20067;-90
2022/10/12 10:51:39;;;;;;;2.35;2.00;;;22.10;99.90;;;;;;4166303;28;20045;-89
2022/10/12 10:54:22;;;;;;;1.58;1.58;;;22.30;99.90;;;;;;4164179;28;20134;-89
2022/10/12 10:56:45;;;;;;;2.03;1.92;;;22.80;99.90;;;;;;4162838;28;20067;-89
2022/10/12 10:59:16;;;;;;;3.00;1.70;;;22.60;99.90;;;;;;4162417;28;20052;-89
2022/10/12 11:01:55;;;;;;;1.95;1.80;;;22.80;99.90;;;;;;4159061;28;20040;-90
2022/10/12 11:04:24;;;;;;;1.85;1.60;;;22.60;99.90;;;;;;4156196;28;20045;-89
2022/10/12 11:06:52;;;;;;;1.92;1.80;;;22.90;99.90;;;;;;4160245;28;20715;-90
2022/10/12 11:09:16;;;;;;;2.47;1.73;;;22.70;99.90;;;;;;4157162;28;20159;-90
2022/10/12 11:11:42;;;;;;;4.68;1.73;;;22.50;99.90;;;;;;4166318;28;20060;-89
2022/10/12 11:14:12;;;;;;;3.60;1.60;;;22.60;99.90;;;;;;4143218;28;20057;-87
2022/10/12 11:16:41;;;;;;;1.48;1.38;;;22.70;99.90;;;;;;4141566;28;20112;-89
2022/10/12 11:19:22;;;;;;;3.42;1.50;;;22.60;99.90;;;;;;4137754;28;20061;-90
2022/10/12 11:21:50;;;;;;;2.92;2.13;;;22.40;99.90;;;;;;4138382;28;20108;-90
2022/10/12 11:24:29;;;;;;;2.83;1.58;;;22.20;99.90;;;;;;4155853;28;20573;-90
2022/10/12 11:26:56;;;;;;;2.70;2.60;;;22.20;99.90;;;;;;4139000;28;20054;-90
2022/10/12 11:29:18;;;;;;;3.88;2.10;;;22.30;99.90;;;;;;4153806;28;20052;-89
2022/10/12 11:31:51;;;;;;;1.90;1.80;;;22.30;99.90;;;;;;4150628;28;20056;-90
2022/10/12 11:34:17;;;;;;;1.60;1.50;;;22.60;99.90;;;;;;4141910;28;20057;-89
2022/10/12 11:36:42;;;;;;;1.67;1.30;;;22.90;99.90;;;;;;4154327;28;20133;-90
2022/10/12 11:39:33;;;;;;;6.35;2.28;;;22.60;99.90;;;;;;4142388;28;20060;-90
2022/10/12 11:42:26;;;;;;;1.48;1.38;;;22.60;99.90;;;;;;4140581;28;20491;-89
2022/10/12 11:48:47;;;;;;;1.42;1.42;;;23.30;99.90;;;;;;4163917;28;20634;-89
2022/10/12 11:54:51;;;;;;;1.20;1.20;;;23.40;99.90;;;;;;4104506;28;20123;-88
2022/10/12 11:57:32;;;;;;;2.45;1.35;;;23.00;99.90;;;;;;4113363;28;20057;-89
2022/10/12 12:00:35;;;;;;;1.40;1.30;;;23.40;99.90;;;;;;4094326;28;20051;-89
2022/10/12 12:03:21;;;;;;;1.75;1.20;;;23.70;99.90;;;;;;4094657;28;20166;-89
2022/10/12 12:06:29;;;;;;;1.30;1.30;;;23.90;99.90;;;;;;4106204;28;20070;-89
2022/10/12 12:09:22;;;;;;;2.03;1.92;;;23.60;99.90;;;;;;4083802;29;20780;-88
2022/10/12 12:12:16;;;;;;;2.15;1.38;;;23.10;99.90;;;;;;4071171;29;20059;-89
2022/10/12 12:14:55;;;;;;;1.60;1.50;;;22.80;99.90;;;;;;4012351;29;20105;-88
2022/10/12 12:17:17;;;;;;;2.35;1.30;;;22.70;99.90;;;;;;4014937;29;20097;-83
2022/10/12 12:19:42;;;;;;;72.20;11.55;;;23.00;99.90;;;;;;4012723;29;20470;-83
2022/10/12 12:22:20;;;;;;;10.30;2.70;;;23.50;99.90;;;;;;4004470;29;20106;-82
2022/10/12 12:25:07;;;;;;;179.88;22.02;;;23.40;99.90;;;;;;4002750;29;20151;-83
2022/10/12 12:27:38;;;;;;;;;;;23.40;99.90;;;;;;4016612;29;20117;-81
2022/10/12 12:30:16;;;;;;;4.38;1.20;;;23.40;99.90;;;;;;4015432;29;19939;-80
2022/10/12 12:32:48;;;;;;;1.00;1.00;;;23.60;99.90;;;;;;4037493;29;20063;-81
2022/10/12 12:35:23;;;;;;;1.00;1.00;;;23.70;99.90;;;;;;4041256;28;20488;-80
2022/10/12 12:37:44;;;;;;;1.52;1.42;;;23.60;99.90;;;;;;4043026;28;20485;-81
2022/10/12 12:40:05;;;;;;;1.77;1.00;;;24.00;99.90;;;;;;4040051;29;20063;-81
2022/10/12 12:42:31;;;;;;;2.05;1.00;;;23.90;99.40;;;;;;4052698;28;20059;-80
2022/10/12 12:44:51;;;;;;;2.40;1.10;;;24.00;99.90;;;;;;4073420;28;20058;-80
2022/10/12 12:47:12;;;;;;;1.38;1.38;;;23.80;99.90;;;;;;4082241;29;20046;-81
2022/10/12 12:50:00;;;;;;;1.70;1.20;;;24.00;99.90;;;;;;4102194;28;20110;-80
2022/10/12 12:52:30;;;;;;;1.25;1.15;;;23.90;99.70;;;;;;4160808;28;20412;-80
2022/10/12 12:54:56;;;;;;;1.67;1.15;;;23.60;98.80;;;;;;4148539;28;20397;-81